Time;durP1;ratioP1;P1;durP2;ratioP2;P2;SDS_P1;SDS_P2;PMS_P1;PMS_P2;Temp;Humidity;BMP_temperature;BMP_pressure;BME280_temperature;BME280_humidity;BME280_pressure;Samples;Min_cycle;Max_cycle;Signal;HPM_P1;HPM_P2
2022/05/04 00:01:30;;;;;;;;;;;;;;;21.55;29.50;97818.94;5055615;28;1902;-74
2022/05/04 00:03:56;;;;;;;;;;;;;;;21.94;28.75;97823.44;5055212;28;1166;-74
2022/05/04 00:06:22;;;;;;;;;;;;;;;22.00;28.29;97821.63;5055374;28;1058;-73
2022/05/04 00:08:47;;;;;;;;;;;;;;;21.69;28.57;97832.69;5055233;28;869;-74
2022/05/04 00:11:13;;;;;;;;;;;;;;;21.33;28.87;97827.28;5055214;28;949;-73
2022/05/04 00:13:38;;;;;;;;;;;;;;;21.34;29.15;97826.03;5056008;28;973;-74
2022/05/04 00:16:05;;;;;;;;;;;;;;;21.27;29.27;97829.81;5055231;28;918;-74
2022/05/04 00:18:31;;;;;;;;;;;;;;;21.28;29.27;97831.41;5055391;28;1018;-73
2022/05/04 00:20:56;;;;;;;;;;;;;;;21.51;29.41;97829.59;5054933;28;1906;-73
2022/05/04 00:23:22;;;;;;;;;;;;;;;21.77;28.89;97830.47;5055142;28;1083;-74
2022/05/04 00:25:47;;;;;;;;;;;;;;;21.91;28.62;97834.88;5055152;28;908;-73
2022/05/04 00:28:13;;;;;;;;;;;;;;;21.60;28.74;97838.22;5055356;28;835;-74
2022/05/04 00:30:38;;;;;;;;;;;;;;;21.47;28.91;97834.56;5055646;28;1000;-74
2022/05/04 00:33:04;;;;;;;;;;;;;;;21.41;29.22;97833.53;5072433;28;2608;-74
2022/05/04 00:35:29;;;;;;;;;;;;;;;21.44;29.23;97824.94;5072376;28;963;-74
2022/05/04 00:37:55;;;;;;;;;;;;;;;21.27;29.81;97827.00;5072138;28;923;-73
2022/05/04 00:40:20;;;;;;;;;;;;;;;21.34;29.83;97831.69;5039181;28;1063;-73
2022/05/04 00:42:45;;;;;;;;;;;;;;;21.59;29.35;97831.75;5072369;28;1906;-73
2022/05/04 00:45:11;;;;;;;;;;;;;;;21.93;28.98;97827.53;5072293;28;885;-73
2022/05/04 00:47:36;;;;;;;;;;;;;;;21.90;28.91;97833.31;5072370;28;946;-74
2022/05/04 00:50:04;;;;;;;;;;;;;;;21.58;29.01;97840.72;5072485;28;925;-73
2022/05/04 00:52:34;;;;;;;;;;;;;;;21.34;29.61;97837.34;5072025;28;1093;-73
2022/05/04 00:54:59;;;;;;;;;;;;;;;21.37;29.49;97841.34;5072016;28;979;-73
2022/05/04 01:00:09;;;;;;;;;;;;;;;21.69;29.72;97837.56;5031984;28;966;-73
2022/05/04 01:02:36;;;;;;;;;;;;;;;21.78;29.73;97835.66;5032036;28;1975;-74
2022/05/04 01:05:02;;;;;;;;;;;;;;;21.79;29.18;97839.28;5014465;28;1033;-74
2022/05/04 01:07:27;;;;;;;;;;;;;;;21.49;29.73;97837.75;4995994;28;1020;-73
2022/05/04 01:09:53;;;;;;;;;;;;;;;21.32;29.93;97834.97;5012474;28;967;-74
2022/05/04 01:12:21;;;;;;;;;;;;;;;21.33;30.06;97836.56;5012390;28;995;-74
2022/05/04 01:14:47;;;;;;;;;;;;;;;21.32;29.99;97826.47;5012139;28;1227;-74
2022/05/04 01:17:12;;;;;;;;;;;;;;;21.35;29.99;97821.16;5012405;28;1043;-73
2022/05/04 01:19:38;;;;;;;;;;;;;;;21.66;30.12;97825.13;5012136;28;937;-73
2022/05/04 01:22:03;;;;;;;;;;;;;;;21.78;29.41;97832.84;5012240;28;1914;-74
2022/05/04 01:24:29;;;;;;;;;;;;;;;21.88;29.31;97821.63;5012298;28;1033;-74
2022/05/04 01:26:55;;;;;;;;;;;;;;;21.56;29.94;97824.19;5012081;28;939;-73
2022/05/04 01:29:20;;;;;;;;;;;;;;;21.46;29.79;97827.31;5012072;28;1017;-73
2022/05/04 01:31:45;;;;;;;;;;;;;;;21.32;30.14;97829.31;5012224;28;961;-74
2022/05/04 01:34:11;;;;;;;;;;;;;;;21.35;30.46;97832.47;5012303;28;1143;-73
2022/05/04 01:36:36;;;;;;;;;;;;;;;21.24;30.28;97827.91;5023273;28;927;-73
2022/05/04 01:39:02;;;;;;;;;;;;;;;21.50;30.45;97828.81;5058211;28;894;-73
2022/05/04 01:44:11;;;;;;;;;;;;;;;21.87;29.56;97831.38;5058149;28;773;-74
2022/05/04 01:46:37;;;;;;;;;;;;;;;21.61;29.54;97771.88;5058196;28;991;-73
2022/05/04 01:49:02;;;;;;;;;;;;;;;21.77;29.47;97830.47;5058067;28;918;-74
2022/05/04 01:51:28;;;;;;;;;;;;;;;21.57;29.84;97828.59;5072518;28;923;-73
2022/05/04 01:53:53;;;;;;;;;;;;;;;21.27;30.35;97838.31;5058047;28;900;-74
2022/05/04 01:56:19;;;;;;;;;;;;;;;21.40;30.14;97840.41;5057863;28;859;-74
2022/05/04 01:58:44;;;;;;;;;;;;;;;21.40;30.43;97834.75;5057981;28;1000;-74
2022/05/04 02:01:10;;;;;;;;;;;;;;;21.68;30.30;97844.47;5057464;28;1976;-74
2022/05/04 02:03:35;;;;;;;;;;;;;;;21.98;29.78;97841.13;5072135;28;1016;-73
2022/05/04 02:06:00;;;;;;;;;;;;;;;22.17;29.41;97847.06;5057867;28;909;-74
2022/05/04 02:08:26;;;;;;;;;;;;;;;21.69;29.59;97841.19;5071861;28;1082;-73
2022/05/04 02:10:52;;;;;;;;;;;;;;;21.52;29.80;97848.19;5057605;28;818;-74
2022/05/04 02:13:17;;;;;;;;;;;;;;;21.41;29.82;97847.69;5057823;28;992;-74
2022/05/04 02:15:42;;;;;;;;;;;;;;;21.35;30.11;97849.44;5057951;28;910;-73
2022/05/04 02:18:08;;;;;;;;;;;;;;;21.38;30.24;97857.06;5057747;28;1023;-74
2022/05/04 02:20:33;;;;;;;;;;;;;;;21.31;30.42;97856.03;5057653;28;969;-74
2022/05/04 02:22:59;;;;;;;;;;;;;;;21.68;30.30;97855.81;5057311;28;1969;-73
2022/05/04 02:25:24;;;;;;;;;;;;;;;21.98;29.57;97857.34;5057662;28;845;-74
2022/05/04 02:27:50;;;;;;;;;;;;;;;21.84;29.53;97853.69;5057566;28;888;-74
2022/05/04 02:30:15;;;;;;;;;;;;;;;21.48;29.99;97858.81;5057277;28;936;-74
2022/05/04 02:32:40;;;;;;;;;;;;;;;21.40;29.93;97863.06;5057393;28;891;-73
2022/05/04 02:37:57;;;;;;;;;;;;;;;21.32;30.17;97868.13;5057259;28;947;-73
2022/05/04 02:40:23;;;;;;;;;;;;;;;21.27;30.63;97872.28;5056896;28;968;-73
2022/05/04 02:42:48;;;;;;;;;;;;;;;21.29;30.28;97869.00;5056810;28;1967;-74
2022/05/04 02:45:17;;;;;;;;;;;;;;;21.32;30.45;97868.13;5088427;28;1019;-74
2022/05/04 02:47:42;;;;;;;;;;;;;;;21.71;29.92;97872.69;5057188;28;941;-74
2022/05/04 02:50:08;;;;;;;;;;;;;;;21.79;29.53;97874.06;5056715;28;891;-74
2022/05/04 02:52:33;;;;;;;;;;;;;;;21.97;28.88;97873.56;5071440;28;1053;-74
2022/05/04 02:54:59;;;;;;;;;;;;;;;21.51;29.66;97874.91;5056931;28;1069;-73
2022/05/04 02:57:24;;;;;;;;;;;;;;;21.39;29.67;97878.47;5056858;28;936;-73
2022/05/04 02:59:50;;;;;;;;;;;;;;;21.31;29.84;97881.50;5057106;28;930;-73
2022/05/04 03:02:27;;;;;;;;;;;;;;;21.38;30.12;97874.84;5070981;28;1903;-73
2022/05/04 03:04:54;;;;;;;;;;;;;;;21.63;29.41;97876.97;5056743;28;963;-74
2022/05/04 03:07:20;;;;;;;;;;;;;;;21.91;29.00;97877.38;5057080;28;914;-73
2022/05/04 03:09:45;;;;;;;;;;;;;;;21.48;29.44;97881.44;5056725;28;940;-73
2022/05/04 03:12:11;;;;;;;;;;;;;;;21.29;29.71;97880.31;5056987;28;976;-74
2022/05/04 03:14:36;;;;;;;;;;;;;;;21.12;30.11;97878.75;5071062;28;1054;-74
2022/05/04 03:17:01;;;;;;;;;;;;;;;21.53;29.99;97889.38;5056924;28;914;-73
2022/05/04 03:19:27;;;;;;;;;;;;;;;21.77;29.58;97892.75;5056440;28;890;-73
2022/05/04 03:21:52;;;;;;;;;;;;;;;22.05;28.67;97891.91;5056315;28;1905;-73
2022/05/04 03:24:18;;;;;;;;;;;;;;;21.58;29.18;97892.47;5073741;28;1033;-73
2022/05/04 03:26:43;;;;;;;;;;;;;;;21.37;29.57;97890.25;5074111;28;1052;-73
2022/05/04 03:29:09;;;;;;;;;;;;;;;21.21;29.74;97902.34;5073695;28;1460;-74
2022/05/04 03:31:34;;;;;;;;;;;;;;;21.41;29.53;97898.63;5073605;28;1024;-73
2022/05/04 03:34:01;;;;;;;;;;;;;;;21.39;29.70;97912.44;5073524;28;1130;-73
2022/05/04 03:36:26;;;;;;;;;;;;;;;21.30;29.81;97915.91;5073689;28;998;-73
2022/05/04 03:38:52;;;;;;;;;;;;;;;21.17;30.14;97917.84;5073608;28;967;-74
2022/05/04 03:41:17;;;;;;;;;;;;;;;21.30;29.87;97913.09;5073479;28;1976;-74
2022/05/04 03:43:43;;;;;;;;;;;;;;;21.57;29.70;97909.91;5073597;28;1192;-73
2022/05/04 03:46:18;;;;;;;;;;;;;;;21.76;29.30;97925.13;5073464;28;1008;-74
2022/05/04 03:48:44;;;;;;;;;;;;;;;21.76;29.15;97925.97;5073595;28;955;-74
2022/05/04 03:51:10;;;;;;;;;;;;;;;21.43;29.47;97924.44;5073131;28;1005;-73
2022/05/04 03:53:36;;;;;;;;;;;;;;;21.28;29.66;97924.78;5073195;28;986;-73
2022/05/04 03:56:01;;;;;;;;;;;;;;;21.21;30.16;97927.81;5059303;28;1100;-74
2022/05/04 03:58:27;;;;;;;;;;;;;;;21.31;29.96;97935.28;5055286;28;962;-74
2022/05/04 04:00:52;;;;;;;;;;;;;;;21.16;29.99;97933.22;5055584;28;1953;-74
2022/05/04 04:03:18;;;;;;;;;;;;;;;21.30;29.85;97938.56;5055600;28;869;-74
2022/05/04 04:05:44;;;;;;;;;;;;;;;21.73;29.51;97938.16;5055328;28;939;-74
2022/05/04 04:08:09;;;;;;;;;;;;;;;21.84;29.02;97938.66;5071900;28;1084;-73
2022/05/04 04:10:35;;;;;;;;;;;;;;;21.72;28.91;97941.47;5075669;28;878;-73
2022/05/04 04:13:01;;;;;;;;;;;;;;;21.47;29.20;97939.31;5075629;28;765;-74
2022/05/04 04:15:27;;;;;;;;;;;;;;;21.36;29.37;97944.47;5075326;28;1132;-73
2022/05/04 04:17:53;;;;;;;;;;;;;;;21.10;29.87;97938.63;5075029;28;932;-74
2022/05/04 04:23:02;;;;;;;;;;;;;;;21.75;29.26;97940.53;5074841;28;1913;-73
2022/05/04 04:25:27;;;;;;;;;;;;;;;21.96;28.77;97944.81;5074195;28;921;-74
2022/05/04 04:27:53;;;;;;;;;;;;;;;21.65;28.95;97948.09;5074231;28;931;-73
2022/05/04 04:30:18;;;;;;;;;;;;;;;21.55;29.20;97946.34;5074570;28;928;-74
2022/05/04 04:32:44;;;;;;;;;;;;;;;21.37;29.38;97937.56;5074514;28;843;-74
2022/05/04 04:35:09;;;;;;;;;;;;;;;21.27;29.64;97943.03;5073991;28;821;-74
2022/05/04 04:37:35;;;;;;;;;;;;;;;21.47;30.11;97947.81;5074354;28;997;-73
2022/05/04 04:40:00;;;;;;;;;;;;;;;21.82;28.99;97941.16;5071846;28;944;-74
2022/05/04 04:42:26;;;;;;;;;;;;;;;21.82;29.12;97946.81;5073892;28;1984;-73
2022/05/04 04:44:51;;;;;;;;;;;;;;;21.62;28.96;97946.19;5071534;28;1033;-73
2022/05/04 04:47:16;;;;;;;;;;;;;;;21.42;29.43;97946.31;5074191;28;873;-73
2022/05/04 04:49:42;;;;;;;;;;;;;;;21.35;29.31;97948.50;5074024;28;1042;-74
2022/05/04 04:52:07;;;;;;;;;;;;;;;21.36;29.78;97935.97;5074163;28;925;-74
2022/05/04 04:54:33;;;;;;;;;;;;;;;21.64;29.71;97945.72;5074000;28;966;-73
2022/05/04 04:56:58;;;;;;;;;;;;;;;21.87;29.04;97944.69;5071333;28;933;-74
2022/05/04 04:59:23;;;;;;;;;;;;;;;21.76;29.08;97945.78;5073997;28;914;-73
2022/05/04 05:01:49;;;;;;;;;;;;;;;21.56;29.36;97945.13;5073874;28;2067;-74
2022/05/04 05:04:14;;;;;;;;;;;;;;;21.37;29.63;97948.88;5073832;28;913;-73
2022/05/04 05:06:40;;;;;;;;;;;;;;;21.29;29.70;97942.56;5073833;28;881;-74
2022/05/04 05:09:05;;;;;;;;;;;;;;;21.22;29.89;97954.88;5073905;28;905;-73
2022/05/04 05:11:31;;;;;;;;;;;;;;;21.71;29.61;97949.16;5072904;28;888;-73
2022/05/04 05:16:41;;;;;;;;;;;;;;;21.61;29.38;97953.09;5073732;28;938;-74
2022/05/04 05:19:07;;;;;;;;;;;;;;;21.37;29.81;97944.00;5073344;28;921;-74
2022/05/04 05:21:32;;;;;;;;;;;;;;;21.41;29.73;97946.75;5071032;28;1909;-74
2022/05/04 05:23:57;;;;;;;;;;;;;;;21.26;29.75;97949.94;5031239;28;1226026;-74
2022/05/04 05:26:23;;;;;;;;;;;;;;;21.71;29.74;97957.66;5074423;28;1029;-73
2022/05/04 05:28:48;;;;;;;;;;;;;;;21.82;29.78;97960.97;5074440;28;1054;-74
2022/05/04 05:31:14;;;;;;;;;;;;;;;21.82;29.52;97963.81;5074205;28;1228;-74
2022/05/04 05:33:39;;;;;;;;;;;;;;;21.53;29.69;97963.00;5074375;28;919;-73
2022/05/04 05:36:05;;;;;;;;;;;;;;;21.40;30.00;97970.63;5074599;28;829;-74
2022/05/04 05:38:31;;;;;;;;;;;;;;;21.41;29.80;97967.38;5074458;28;869;-73
2022/05/04 05:40:56;;;;;;;;;;;;;;;21.14;30.17;97959.16;5074092;28;1910;-73
2022/05/04 05:43:21;;;;;;;;;;;;;;;21.76;30.06;97968.44;5074563;28;831;-74
2022/05/04 05:45:47;;;;;;;;;;;;;;;21.72;29.92;97976.25;5074405;28;1132;-73
2022/05/04 05:48:12;;;;;;;;;;;;;;;21.75;29.61;97971.69;5074627;28;879;-74
2022/05/04 05:50:38;;;;;;;;;;;;;;;21.57;30.01;97969.38;5073952;28;884;-74
2022/05/04 05:53:03;;;;;;;;;;;;;;;21.47;29.83;97965.59;5105668;28;962;-73
2022/05/04 05:55:29;;;;;;;;;;;;;;;21.27;30.15;97974.16;5074102;28;918;-74
2022/05/04 05:57:55;;;;;;;;;;;;;;;21.46;29.92;97977.34;5074057;28;1175;-72
2022/05/04 06:00:21;;;;;;;;;;;;;;;21.52;29.89;97984.06;5073989;28;916;-73
2022/05/04 06:02:46;;;;;;;;;;;;;;;21.85;29.72;97979.91;5074125;28;2051;-74
2022/05/04 06:05:12;;;;;;;;;;;;;;;21.95;29.40;97971.56;5074481;28;896;-73
2022/05/04 06:07:38;;;;;;;;;;;;;;;21.71;29.88;97988.81;5073747;28;1659;-74
2022/05/04 06:10:04;;;;;;;;;;;;;;;21.56;30.10;97976.28;5072899;28;1156;-73
2022/05/04 06:12:30;;;;;;;;;;;;;;;21.48;29.79;97977.69;5072606;28;1201;-73
2022/05/04 06:14:55;;;;;;;;;;;;;;;21.35;29.93;97980.47;5072843;28;1177;-74
2022/05/04 06:17:21;;;;;;;;;;;;;;;21.21;30.31;97980.78;5072978;28;1344;-74
2022/05/04 06:19:47;;;;;;;;;;;;;;;21.24;30.33;97980.72;5072921;28;1248;-74
2022/05/04 06:22:12;;;;;;;;;;;;;;;21.25;30.57;97985.13;5073684;28;1910;-74
2022/05/04 06:24:38;;;;;;;;;;;;;;;21.55;30.33;97977.50;5076568;28;1256;-74
2022/05/04 06:27:03;;;;;;;;;;;;;;;21.83;29.80;97993.72;5076726;28;1180;-74
2022/05/04 06:35:05;;;;;;;;;;;;;;;21.34;29.91;97990.16;5034473;28;1009;-74
2022/05/04 06:37:31;;;;;;;;;;;;;;;21.42;29.68;97990.81;5034869;28;1061;-74
2022/05/04 06:39:56;;;;;;;;;;;;;;;21.43;30.01;97987.50;5034599;28;1018;-73
2022/05/04 06:42:21;;;;;;;;;;;;;;;21.68;29.84;97995.34;5034554;28;1980;-73
2022/05/04 06:44:47;;;;;;;;;;;;;;;21.76;29.74;97993.94;5034545;28;986;-73
2022/05/04 06:47:12;;;;;;;;;;;;;;;21.61;29.81;97989.91;5034897;28;1087;-74
2022/05/04 06:49:38;;;;;;;;;;;;;;;21.58;29.67;97990.78;5034513;28;1067;-73
2022/05/04 06:52:04;;;;;;;;;;;;;;;21.58;29.79;97993.59;5034232;28;1029;-74
2022/05/04 06:54:29;;;;;;;;;;;;;;;21.45;29.66;97984.22;5034514;28;995;-74
2022/05/04 06:56:55;;;;;;;;;;;;;;;21.66;30.25;97997.84;5033986;28;1040;-73
2022/05/04 06:59:21;;;;;;;;;;;;;;;21.64;30.20;97993.84;5034317;28;1017;-74
2022/05/04 07:01:47;;;;;;;;;;;;;;;21.84;29.51;98003.81;5054230;28;1910;-74
2022/05/04 07:04:12;;;;;;;;;;;;;;;21.57;29.95;97997.69;5054208;28;1080;-74
2022/05/04 07:06:37;;;;;;;;;;;;;;;21.52;30.11;98001.06;5037656;28;912;-73
2022/05/04 07:09:03;;;;;;;;;;;;;;;21.43;29.87;97998.03;5049181;28;981;-74
2022/05/04 07:11:28;;;;;;;;;;;;;;;21.40;29.81;97993.25;5056556;28;919;-73
2022/05/04 07:13:54;;;;;;;;;;;;;;;21.29;30.13;97997.13;5056499;28;941;-73
2022/05/04 07:16:19;;;;;;;;;;;;;;;21.35;29.96;97996.63;5056254;28;945;-74
2022/05/04 07:18:45;;;;;;;;;;;;;;;21.42;30.09;97994.44;5056593;28;942;-74
2022/05/04 07:21:10;;;;;;;;;;;;;;;21.58;30.30;97999.25;5056690;28;1967;-74
2022/05/04 07:23:36;;;;;;;;;;;;;;;21.78;29.59;97996.31;5056046;28;1060;-74
2022/05/04 07:26:01;;;;;;;;;;;;;;;21.88;29.48;98000.88;5056307;28;981;-74
2022/05/04 07:28:26;;;;;;;;;;;;;;;21.58;30.13;98000.06;5055999;28;929;-73
2022/05/04 07:30:52;;;;;;;;;;;;;;;21.54;29.78;97998.56;5055991;28;1114;-74
2022/05/04 07:33:17;;;;;;;;;;;;;;;21.49;29.92;98007.59;5055188;28;884;-74
2022/05/04 07:35:43;;;;;;;;;;;;;;;21.38;30.21;97999.38;5055599;28;906;-74
2022/05/04 07:38:08;;;;;;;;;;;;;;;21.25;30.34;98013.44;5056136;28;910;-74
2022/05/04 07:43:18;;;;;;;;;;;;;;;21.58;30.57;98011.38;5082632;28;996;-73
2022/05/04 07:45:44;;;;;;;;;;;;;;;21.90;29.64;98015.38;5056113;28;997;-74
2022/05/04 07:48:09;;;;;;;;;;;;;;;21.65;29.86;98027.38;5055603;28;919;-74
2022/05/04 07:50:35;;;;;;;;;;;;;;;21.48;30.01;98023.00;5055752;28;975;-74
2022/05/04 07:53:02;;;;;;;;;;;;;;;21.42;30.28;98025.56;5056203;28;894;-74
2022/05/04 07:55:27;;;;;;;;;;;;;;;21.31;30.24;98030.69;5093227;28;961;-74
2022/05/04 07:57:53;;;;;;;;;;;;;;;21.38;30.30;98035.38;5093510;28;905;-74
2022/05/04 08:05:47;;;;;;;;;;;;;;;21.74;30.07;98041.72;5102159;28;1242;-73
2022/05/04 08:08:12;;;;;;;;;;;;;;;21.79;29.87;98044.00;5100550;28;1192;-76
2022/05/04 08:10:38;;;;;;;;;;;;;;;21.61;29.99;98038.03;5100488;28;1376;-77
2022/05/04 08:13:03;;;;;;;;;;;;;;;21.67;29.97;98046.78;5102408;28;1500;-79
2022/05/04 08:15:30;;;;;;;;;;;;;;;21.46;30.36;98036.81;5107817;28;1680;-79
2022/05/04 08:17:57;;;;;;;;;;;;;;;21.58;29.95;98039.69;5103606;28;1341;-80
2022/05/04 08:20:24;;;;;;;;;;;;;;;21.50;30.23;98043.16;5103460;28;1603;-74
2022/05/04 08:22:50;;;;;;;;;;;;;;;21.42;30.30;98041.75;5101999;28;1917;-74
2022/05/04 08:25:17;;;;;;;;;;;;;;;21.47;30.10;98044.06;5100475;28;1558;-73
2022/05/04 08:27:43;;;;;;;;;;;;;;;21.44;30.23;98045.72;5074627;28;1455;-74
2022/05/04 08:30:09;;;;;;;;;;;;;;;21.45;30.33;98035.19;5075296;28;1004;-74
2022/05/04 08:32:34;;;;;;;;;;;;;;;21.38;30.54;98041.84;5089536;28;977;-74
2022/05/04 08:35:00;;;;;;;;;;;;;;;21.30;30.66;98037.59;5075349;28;930;-74
2022/05/04 08:37:28;;;;;;;;;;;;;;;21.32;30.73;98044.41;5075391;28;912;-73
2022/05/04 08:39:54;;;;;;;;;;;;;;;21.48;30.44;98034.31;5072435;28;953;-73
2022/05/04 08:42:20;;;;;;;;;;;;;;;21.74;30.38;98041.72;5072377;28;1954;-74
2022/05/04 08:44:51;;;;;;;;;;;;;;;21.88;30.35;98040.53;5072097;28;993;-74
2022/05/04 08:47:17;;;;;;;;;;;;;;;21.63;30.17;98041.19;5052091;28;1025;-73
2022/05/04 08:49:43;;;;;;;;;;;;;;;21.51;30.65;98033.44;5052508;28;923;-73
2022/05/04 08:52:08;;;;;;;;;;;;;;;21.44;30.41;98039.25;5032068;28;950;-74
2022/05/04 08:54:33;;;;;;;;;;;;;;;21.32;30.80;98040.78;5012484;28;1063;-74
2022/05/04 08:56:59;;;;;;;;;;;;;;;21.26;30.28;98005.72;5012469;28;1433;-73
2022/05/04 08:59:25;;;;;;;;;;;;;;;21.39;30.45;98040.59;5012216;28;916;-74
2022/05/04 09:01:50;;;;;;;;;;;;;;;21.24;30.83;98044.97;5012239;28;1967;-74
2022/05/04 09:04:16;;;;;;;;;;;;;;;21.71;30.38;98041.78;4973212;28;1058;-74
2022/05/04 09:06:42;;;;;;;;;;;;;;;21.81;30.28;98047.19;4973499;28;955;-74
2022/05/04 09:09:13;;;;;;;;;;;;;;;21.68;30.03;98048.38;4973241;28;1178;-73
2022/05/04 09:11:40;;;;;;;;;;;;;;;21.50;30.63;98037.47;4973364;28;1154;-74
2022/05/04 09:14:09;;;;;;;;;;;;;;;21.40;30.58;98038.56;4973128;28;960;-73
2022/05/04 09:16:34;;;;;;;;;;;;;;;21.43;30.17;98037.69;4973208;28;989;-74
2022/05/04 09:19:07;;;;;;;;;;;;;;;21.38;30.44;98041.03;4988481;28;1020;-74
2022/05/04 09:21:33;;;;;;;;;;;;;;;21.31;30.41;98037.16;4992445;28;1902;-74
2022/05/04 09:23:58;;;;;;;;;;;;;;;21.27;30.38;98036.41;5008879;28;1176;-74
2022/05/04 09:26:24;;;;;;;;;;;;;;;21.65;30.38;98038.72;5045600;28;945;-74
2022/05/04 09:28:50;;;;;;;;;;;;;;;21.72;29.94;98026.41;5052067;28;1056;-74
2022/05/04 09:31:18;;;;;;;;;;;;;;;21.81;29.42;98035.88;5051836;28;974;-73
2022/05/04 09:33:43;;;;;;;;;;;;;;;21.49;29.92;98024.56;5051976;28;892;-74
2022/05/04 09:36:09;;;;;;;;;;;;;;;21.40;29.76;98042.22;5071205;28;907;-73
2022/05/04 09:46:48;;;;;;;;;;;;;;;21.81;28.85;98024.53;5074464;28;1398;-74
2022/05/04 09:49:15;;;;;;;;;;;;;;;21.52;29.23;98027.31;5071900;28;1007;-74
2022/05/04 09:51:41;;;;;;;;;;;;;;;21.38;29.38;98024.06;5071907;28;989;-74
2022/05/04 09:54:13;;;;;;;;;;;;;;;21.29;29.34;98033.91;5073918;28;1029;-74
2022/05/04 09:56:39;;;;;;;;;;;;;;;21.27;29.36;98027.91;5051193;28;995;-74
2022/05/04 09:59:05;;;;;;;;;;;;;;;21.75;29.00;98023.47;5055277;28;915;-74
2022/05/04 10:01:31;;;;;;;;;;;;;;;21.82;28.85;98031.78;5055138;28;1985;-74
2022/05/04 10:04:00;;;;;;;;;;;;;;;21.46;29.14;98019.81;5034843;28;942;-74
2022/05/04 10:06:26;;;;;;;;;;;;;;;21.60;28.63;98016.59;5035156;28;1040;-74
2022/05/04 10:08:51;;;;;;;;;;;;;;;21.48;28.73;98025.81;5035257;28;1091;-74
2022/05/04 10:11:17;;;;;;;;;;;;;;;21.38;28.74;98018.41;5035296;28;983;-73
2022/05/04 10:13:42;;;;;;;;;;;;;;;21.46;29.51;98017.00;4984835;28;1995;-74
2022/05/04 10:16:10;;;;;;;;;;;;;;;21.71;28.50;98017.13;5015379;28;1431;-74
2022/05/04 10:18:35;;;;;;;;;;;;;;;21.89;28.43;98013.00;5015212;28;975;-74
2022/05/04 10:21:11;;;;;;;;;;;;;;;21.57;28.61;98014.66;5015095;28;1979;-74
2022/05/04 10:23:43;;;;;;;;;;;;;;;21.32;28.85;98013.28;5015004;28;1137;-74
2022/05/04 10:26:12;;;;;;;;;;;;;;;21.45;28.86;98015.38;5015197;28;1037;-74
2022/05/04 10:28:38;;;;;;;;;;;;;;;21.40;29.14;98015.91;5014943;28;1039;-74
2022/05/04 10:31:07;;;;;;;;;;;;;;;21.67;28.47;98002.25;5012395;28;942;-74
2022/05/04 10:33:35;;;;;;;;;;;;;;;22.05;27.84;98001.63;5014717;28;1020;-74
2022/05/04 10:36:16;;;;;;;;;;;;;;;21.64;28.25;98003.16;5052086;28;940;-74
2022/05/04 10:38:41;;;;;;;;;;;;;;;21.54;28.63;97992.91;5054377;28;998;-74
2022/05/04 10:41:09;;;;;;;;;;;;;;;21.23;29.18;97998.13;5054821;28;1976;-74
2022/05/04 10:43:36;;;;;;;;;;;;;;;21.24;29.18;97997.69;5054531;28;920;-74
2022/05/04 10:46:11;;;;;;;;;;;;;;;21.46;28.78;98000.00;5054321;28;900;-74
2022/05/04 10:48:41;;;;;;;;;;;;;;;21.78;28.19;97999.94;5054914;28;959;-73
2022/05/04 10:51:11;;;;;;;;;;;;;;;21.85;28.02;97996.91;5054586;28;1072;-74
2022/05/04 10:53:37;;;;;;;;;;;;;;;21.50;28.46;98003.50;5065665;28;1048;-74
2022/05/04 10:56:05;;;;;;;;;;;;;;;21.40;28.75;98010.25;5114856;28;1029;-74
2022/05/04 10:58:36;;;;;;;;;;;;;;;21.38;28.35;97996.53;5114529;28;1022;-74
2022/05/04 11:01:03;;;;;;;;;;;;;;;21.68;28.57;98003.06;5114963;28;1905;-73
2022/05/04 11:03:32;;;;;;;;;;;;;;;21.74;28.21;97995.59;5114613;28;1019;-74
2022/05/04 11:05:58;;;;;;;;;;;;;;;21.89;27.87;97990.34;5114763;28;1056;-74
2022/05/04 11:08:25;;;;;;;;;;;;;;;21.72;28.03;97984.72;5114504;28;952;-74
2022/05/04 11:10:51;;;;;;;;;;;;;;;21.56;28.61;97984.78;5114677;28;1104;-73
2022/05/04 11:13:16;;;;;;;;;;;;;;;21.43;28.51;97990.34;5114669;28;931;-74
2022/05/04 11:15:50;;;;;;;;;;;;;;;21.38;28.78;97988.06;5114285;28;928;-74
2022/05/04 11:18:23;;;;;;;;;;;;;;;21.22;28.87;97996.53;5114723;28;948;-74
2022/05/04 11:20:50;;;;;;;;;;;;;;;21.69;28.42;97994.09;5114479;28;1038;-74
2022/05/04 11:23:21;;;;;;;;;;;;;;;21.93;28.00;98002.38;5114451;28;1979;-73
2022/05/04 11:25:50;;;;;;;;;;;;;;;21.61;28.34;98000.44;5114420;28;1114;-74
2022/05/04 11:28:19;;;;;;;;;;;;;;;21.35;28.87;97991.78;5073639;28;1010;-74
2022/05/04 11:30:45;;;;;;;;;;;;;;;21.37;28.95;97999.81;5073604;28;1198;-73
2022/05/04 11:33:14;;;;;;;;;;;;;;;21.33;28.57;97989.38;5073664;28;949;-73
2022/05/04 11:35:41;;;;;;;;;;;;;;;21.27;28.94;97976.97;5093574;28;986;-74
2022/05/04 11:38:06;;;;;;;;;;;;;;;21.62;28.39;97980.16;5093789;28;1058;-73
2022/05/04 11:40:32;;;;;;;;;;;;;;;21.75;28.06;97986.66;5093717;28;1023;-74
2022/05/04 11:42:57;;;;;;;;;;;;;;;21.73;28.23;97977.81;5093729;28;1918;-73
2022/05/04 11:45:23;;;;;;;;;;;;;;;21.59;28.18;97970.50;5093470;28;1237;-74
2022/05/04 11:47:48;;;;;;;;;;;;;;;21.24;28.72;97975.06;5076777;28;929;-74
2022/05/04 11:50:14;;;;;;;;;;;;;;;21.25;28.75;97981.50;5073156;28;1044;-73
2022/05/04 11:52:40;;;;;;;;;;;;;;;21.40;28.75;97979.09;5073395;28;929;-73
2022/05/04 11:55:06;;;;;;;;;;;;;;;21.61;28.42;97981.41;5039745;28;1459;-74
2022/05/04 11:57:39;;;;;;;;;;;;;;;21.78;28.27;97985.78;5073125;28;903;-73
2022/05/04 12:00:17;;;;;;;;;;;;;;;21.59;28.27;97983.88;5072955;28;1049;-74
2022/05/04 12:02:42;;;;;;;;;;;;;;;21.44;28.51;97985.47;5072978;28;1902;-73
2022/05/04 12:05:08;;;;;;;;;;;;;;;21.30;28.90;97986.66;5072740;28;1010;-74
2022/05/04 12:07:33;;;;;;;;;;;;;;;21.56;28.87;97985.56;5038412;28;1404;-73
2022/05/04 12:09:59;;;;;;;;;;;;;;;21.92;28.11;97976.09;5036494;28;997;-73
2022/05/04 12:12:24;;;;;;;;;;;;;;;21.79;28.20;97964.69;5019699;28;1016;-74
2022/05/04 12:14:53;;;;;;;;;;;;;;;21.52;28.44;97978.41;5052480;28;944;-73
2022/05/04 12:17:24;;;;;;;;;;;;;;;21.39;28.49;97977.53;5036286;28;1396;-73
2022/05/04 12:19:49;;;;;;;;;;;;;;;21.28;29.07;97975.75;5052254;28;912;-73
2022/05/04 12:22:15;;;;;;;;;;;;;;;21.36;28.68;97964.28;5072974;28;1965;-73
2022/05/04 12:24:42;;;;;;;;;;;;;;;21.38;28.59;97961.78;5075155;28;862;-73
2022/05/04 12:27:09;;;;;;;;;;;;;;;21.54;28.63;97976.69;5075321;28;803;-74
2022/05/04 12:35:03;;;;;;;;;;;;;;;21.48;28.81;97972.81;5101811;28;998;-74
2022/05/04 12:37:32;;;;;;;;;;;;;;;21.52;28.27;97972.75;5107542;28;892;-74
2022/05/04 12:39:57;;;;;;;;;;;;;;;21.28;28.98;97977.78;5107347;28;943;-74
2022/05/04 12:42:22;;;;;;;;;;;;;;;21.30;28.71;97973.31;5074912;28;1898;-74
2022/05/04 12:44:49;;;;;;;;;;;;;;;21.27;28.69;97974.16;5080144;28;914;-74
2022/05/04 12:47:14;;;;;;;;;;;;;;;21.51;28.58;97968.31;5107733;28;1087;-73
2022/05/04 12:49:40;;;;;;;;;;;;;;;21.70;28.39;97961.72;5075026;28;1085;-73
2022/05/04 12:52:05;;;;;;;;;;;;;;;21.57;28.18;97966.53;5075056;28;915;-73
2022/05/04 12:54:32;;;;;;;;;;;;;;;21.49;28.43;97979.28;5074754;28;905;-74
2022/05/04 12:56:58;;;;;;;;;;;;;;;21.43;28.54;97964.09;5074623;28;911;-73
2022/05/04 12:59:23;;;;;;;;;;;;;;;21.28;29.00;97963.63;5105939;28;1004;-73
2022/05/04 13:01:49;;;;;;;;;;;;;;;21.15;29.01;97966.38;5074385;28;1905;-74
2022/05/04 13:04:15;;;;;;;;;;;;;;;21.59;28.67;97967.66;5074543;28;835;-74
2022/05/04 13:06:41;;;;;;;;;;;;;;;21.71;28.40;97956.84;5074162;28;1003;-73
2022/05/04 13:09:07;;;;;;;;;;;;;;;21.69;28.14;97965.78;5075190;28;1101;-74
2022/05/04 13:11:32;;;;;;;;;;;;;;;21.63;28.15;97978.91;5074480;28;930;-74
2022/05/04 13:13:58;;;;;;;;;;;;;;;21.38;28.47;97968.25;5106944;28;1111;-74
2022/05/04 13:16:23;;;;;;;;;;;;;;;21.38;28.46;97967.44;5074447;28;1024;-74
2022/05/04 13:18:49;;;;;;;;;;;;;;;21.36;28.56;97958.63;5074421;28;1120;-74
2022/05/04 13:21:15;;;;;;;;;;;;;;;21.49;28.51;97962.28;5074378;28;1972;-74
2022/05/04 13:23:42;;;;;;;;;;;;;;;21.76;28.25;97970.44;5074783;28;1264;-73
2022/05/04 13:26:12;;;;;;;;;;;;;;;21.59;28.12;97969.72;5104931;28;988;-74
2022/05/04 13:28:38;;;;;;;;;;;;;;;21.48;28.38;97966.38;5074431;28;851;-73
2022/05/04 13:31:04;;;;;;;;;;;;;;;21.50;28.49;97959.03;5074685;28;908;-74
2022/05/04 13:33:31;;;;;;;;;;;;;;;21.36;28.48;97964.28;5077574;28;970;-73
2022/05/04 13:35:57;;;;;;;;;;;;;;;21.28;28.92;97970.06;5116532;28;912;-74
2022/05/04 13:38:23;;;;;;;;;;;;;;;21.60;28.43;97968.47;5116498;28;1046;-73